Time;durP1;ratioP1;P1;durP2;ratioP2;P2;SDS_P1;SDS_P2;PMS_P1;PMS_P2;Temp;Humidity;BMP_temperature;BMP_pressure;BME280_temperature;BME280_humidity;BME280_pressure;Samples;Min_cycle;Max_cycle;Signal;HPM_P1;HPM_P2
2024/02/09 00:00:51;;;;;;;;;;;14.80;73.60;;;;;;5013259;28;20004;-69
2024/02/09 00:03:19;;;;;;;;;;;14.80;72.90;;;;;;5012974;28;20399;-68
2024/02/09 00:05:45;;;;;;;;;;;14.80;73.50;;;;;;5013168;28;19980;-68
2024/02/09 00:08:13;;;;;;;;;;;14.90;73.30;;;;;;5013256;28;20337;-68
2024/02/09 00:10:40;;;;;;;;;;;14.80;73.40;;;;;;5013322;28;20284;-68
2024/02/09 00:13:12;;;;;;;;;;;14.90;73.40;;;;;;5013030;28;19910;-68
2024/02/09 00:15:42;;;;;;;;;;;14.80;73.40;;;;;;5013329;28;19915;-68
2024/02/09 00:18:07;;;;;;;;;;;14.80;68.80;;;;;;5012372;28;19920;-68
2024/02/09 00:20:33;;;;;;;;;;;14.80;73.50;;;;;;5012874;28;19992;-68
2024/02/09 00:22:58;;;;;;;;;;;14.90;73.50;;;;;;5012938;28;19916;-68
2024/02/09 00:25:24;;;;;;;;;;;15.00;73.40;;;;;;5011899;28;19917;-68
2024/02/09 00:27:50;;;;;;;;;;;14.90;73.50;;;;;;5012915;28;20402;-69
2024/02/09 00:30:15;;;;;;;;;;;14.90;74.00;;;;;;5012799;28;19910;-68
2024/02/09 00:32:41;;;;;;;;;;;14.90;73.20;;;;;;5012727;28;20438;-68
2024/02/09 00:35:07;;;;;;;;;;;14.90;73.00;;;;;;5012741;28;19960;-68
2024/02/09 00:37:32;;;;;;;;;;;14.90;72.40;;;;;;5012583;28;19948;-69
2024/02/09 00:39:58;;;;;;;;;;;14.90;73.30;;;;;;5012502;28;19910;-68
2024/02/09 00:42:23;;;;;;;;;;;14.90;73.40;;;;;;5012610;28;20415;-69
2024/02/09 00:44:49;;;;;;;;;;;14.90;73.20;;;;;;5013062;28;20012;-68
2024/02/09 00:47:14;;;;;;;;;;;15.00;73.20;;;;;;5012590;28;19910;-68
2024/02/09 00:49:43;;;;;;;;;;;15.00;73.20;;;;;;5012483;28;20345;-68
2024/02/09 00:52:10;;;;;;;;;;;15.00;69.10;;;;;;5012467;28;19910;-68
2024/02/09 00:54:36;;;;;;;;;;;15.00;73.30;;;;;;5012586;28;19916;-68
2024/02/09 00:57:02;;;;;;;;;;;15.00;73.30;;;;;;5012563;28;19913;-68
2024/02/09 00:59:27;;;;;;;;;;;15.10;73.20;;;;;;5011328;28;19914;-68
2024/02/09 01:01:57;;;;;;;;;;;15.10;72.80;;;;;;5012363;28;19909;-68
2024/02/09 01:04:23;;;;;;;;;;;15.00;69.90;;;;;;5012359;28;19929;-68
2024/02/09 01:06:49;;;;;;;;;;;15.00;73.30;;;;;;5012630;28;19914;-68
2024/02/09 01:09:15;;;;;;;;;;;15.10;73.20;;;;;;5012683;28;19936;-69
2024/02/09 01:11:41;;;;;;;;;;;15.00;73.40;;;;;;5013146;28;19909;-79
2024/02/09 02:47:03;;;;;;;;;;;15.30;73.20;;;;;;5014949;28;19953;-78
2024/02/09 03:05:54;;;;;;;;;;;15.40;69.70;;;;;;5014937;28;19928;-81
2024/02/09 03:08:19;;;;;;;;;;;15.40;73.00;;;;;;5014252;28;19910;-80
2024/02/09 03:10:45;;;;;;;;;;;15.40;73.20;;;;;;5014558;28;19967;-80
2024/02/09 03:13:10;;;;;;;;;;;15.50;73.20;;;;;;5014199;28;20432;-78
2024/02/09 03:15:36;;;;;;;;;;;15.40;72.80;;;;;;5014073;28;19910;-78
2024/02/09 03:18:05;;;;;;;;;;;15.40;73.00;;;;;;5014138;28;19921;-78
2024/02/09 03:20:31;;;;;;;;;;;15.40;69.40;;;;;;5014275;28;19916;-77
2024/02/09 03:22:58;;;;;;;;;;;15.40;73.30;;;;;;5013973;28;19917;-80
2024/02/09 03:25:23;;;;;;;;;;;15.50;73.10;;;;;;5013849;28;19925;-80
2024/02/09 03:27:50;;;;;;;;;;;15.50;72.70;;;;;;5014195;28;19911;-77
2024/02/09 03:30:16;;;;;;;;;;;15.40;73.00;;;;;;5013814;28;19916;-77
2024/02/09 03:32:44;;;;;;;;;;;15.50;73.10;;;;;;5013795;28;19921;-78
2024/02/09 03:35:09;;;;;;;;;;;15.40;73.00;;;;;;5014303;28;19909;-78
2024/02/09 03:37:35;;;;;;;;;;;15.50;72.90;;;;;;5013723;28;19955;-78
2024/02/09 03:40:01;;;;;;;;;;;15.40;72.90;;;;;;5013595;28;19934;-78
2024/02/09 03:42:26;;;;;;;;;;;15.50;73.00;;;;;;5013722;28;19949;-78
2024/02/09 03:44:56;;;;;;;;;;;15.50;72.90;;;;;;5013848;28;19921;-78
2024/02/09 03:47:26;;;;;;;;;;;15.40;73.00;;;;;;5013515;28;19956;-78
2024/02/09 03:49:56;;;;;;;;;;;15.40;73.10;;;;;;5013061;28;20150;-77
2024/02/09 03:52:22;;;;;;;;;;;15.40;68.50;;;;;;5012578;28;19964;-78
2024/02/09 03:54:51;;;;;;;;;;;15.40;72.90;;;;;;5013434;28;19913;-78
2024/02/09 03:57:17;;;;;;;;;;;15.50;73.20;;;;;;5013334;28;20484;-78
2024/02/09 03:59:42;;;;;;;;;;;15.50;73.00;;;;;;5013155;28;19945;-76
2024/02/09 04:02:08;;;;;;;;;;;15.40;72.50;;;;;;5013245;28;19972;-78
2024/02/09 04:04:34;;;;;;;;;;;15.40;73.00;;;;;;5013623;28;19957;-78
2024/02/09 04:07:00;;;;;;;;;;;15.40;73.00;;;;;;5013404;28;19960;-78
2024/02/09 04:09:27;;;;;;;;;;;15.50;72.90;;;;;;5013493;28;19956;-78
2024/02/09 04:11:55;;;;;;;;;;;15.40;72.90;;;;;;5013447;28;20477;-78
2024/02/09 04:14:21;;;;;;;;;;;15.60;68.80;;;;;;5013454;28;19992;-78
2024/02/09 04:16:49;;;;;;;;;;;15.50;72.90;;;;;;5013324;28;20316;-81
2024/02/09 04:19:18;;;;;;;;;;;15.50;72.90;;;;;;5013109;28;19945;-81
2024/02/09 04:21:47;;;;;;;;;;;15.50;73.10;;;;;;5012972;28;20008;-80
2024/02/09 04:24:25;;;;;;;;;;;15.40;72.80;;;;;;5013047;28;19992;-80
2024/02/09 04:26:51;;;;;;;;;;;15.40;68.40;;;;;;5012861;28;19917;-78
2024/02/09 04:29:17;;;;;;;;;;;15.40;72.90;;;;;;5012888;28;19917;-78
2024/02/09 04:31:43;;;;;;;;;;;15.40;72.00;;;;;;5013336;28;20008;-81
2024/02/09 04:34:10;;;;;;;;;;;15.50;72.80;;;;;;5012850;28;19949;-81
2024/02/09 04:36:37;;;;;;;;;;;15.40;72.90;;;;;;5012779;28;19917;-78
2024/02/09 04:39:02;;;;;;;;;;;15.50;73.00;;;;;;5012754;28;19914;-79
2024/02/09 04:41:28;;;;;;;;;;;15.50;72.80;;;;;;5012798;28;19936;-78
2024/02/09 04:43:53;;;;;;;;;;;15.50;72.90;;;;;;5012804;28;20438;-80
2024/02/09 04:46:22;;;;;;;;;;;15.50;72.90;;;;;;5012655;28;19918;-78
2024/02/09 04:48:48;;;;;;;;;;;15.50;73.20;;;;;;5012592;28;19957;-79
2024/02/09 04:51:13;;;;;;;;;;;15.50;73.10;;;;;;5012685;28;20346;-78
2024/02/09 04:53:39;;;;;;;;;;;15.50;72.90;;;;;;5012509;28;19909;-78
2024/02/09 04:56:04;;;;;;;;;;;15.50;72.80;;;;;;5012626;28;19944;-79
2024/02/09 04:58:31;;;;;;;;;;;15.60;73.00;;;;;;5012798;28;19999;-79
2024/02/09 05:00:56;;;;;;;;;;;15.50;72.50;;;;;;5013178;28;19910;-78
2024/02/09 05:03:22;;;;;;;;;;;15.60;72.50;;;;;;5013471;28;20288;-78
2024/02/09 05:05:47;;;;;;;;;;;15.50;72.70;;;;;;5016286;28;20020;-78
2024/02/09 05:08:13;;;;;;;;;;;15.70;73.00;;;;;;5016502;28;19913;-78
2024/02/09 05:10:39;;;;;;;;;;;15.60;72.90;;;;;;5016458;28;20453;-80
2024/02/09 05:13:07;;;;;;;;;;;15.60;73.00;;;;;;5016512;28;19910;-80
2024/02/09 05:15:33;;;;;;;;;;;15.60;72.80;;;;;;5016371;28;19909;-80
2024/02/09 05:17:59;;;;;;;;;;;15.50;73.10;;;;;;5016055;28;19932;-80
2024/02/09 05:20:24;;;;;;;;;;;15.60;73.10;;;;;;5016274;28;20262;-80
2024/02/09 05:22:50;;;;;;;;;;;15.60;73.00;;;;;;5016136;28;19909;-78
2024/02/09 05:25:16;;;;;;;;;;;15.60;73.20;;;;;;5016335;28;19918;-78
2024/02/09 05:27:43;;;;;;;;;;;15.90;72.70;;;;;;5016149;28;19914;-78
2024/02/09 05:30:09;;;;;;;;;;;15.60;73.10;;;;;;5016644;28;19941;-78
2024/02/09 05:32:35;;;;;;;;;;;15.60;71.50;;;;;;5016113;28;20027;-78
2024/02/09 05:35:00;;;;;;;;;;;15.60;73.10;;;;;;5015968;28;19941;-78
2024/02/09 05:37:26;;;;;;;;;;;15.70;72.70;;;;;;5016233;28;20311;-78
2024/02/09 05:39:52;;;;;;;;;;;15.60;73.20;;;;;;5016074;28;19909;-78
2024/02/09 05:42:18;;;;;;;;;;;15.60;73.00;;;;;;5015908;28;19940;-79
2024/02/09 05:44:44;;;;;;;;;;;15.60;72.90;;;;;;5016021;28;19918;-78
2024/02/09 05:47:09;;;;;;;;;;;15.60;73.00;;;;;;5015798;28;19914;-78
2024/02/09 05:49:37;;;;;;;;;;;15.70;73.00;;;;;;5015759;28;19913;-79
2024/02/09 05:52:04;;;;;;;;;;;15.70;73.10;;;;;;5015886;28;19916;-79
2024/02/09 05:54:29;;;;;;;;;;;15.70;72.90;;;;;;5015693;28;19909;-78
2024/02/09 05:56:55;;;;;;;;;;;15.70;72.40;;;;;;5016046;28;19910;-68
2024/02/09 05:59:23;;;;;;;;;;;15.50;72.70;;;;;;5015655;28;19909;-68
2024/02/09 06:01:49;;;;;;;;;;;15.70;72.40;;;;;;5015499;28;19969;-68
2024/02/09 06:04:14;;;;;;;;;;;15.70;72.80;;;;;;5015289;28;20059;-68
2024/02/09 06:06:43;;;;;;;;;;;15.70;72.80;;;;;;5015721;28;19917;-68
2024/02/09 06:09:09;;;;;;;;;;;15.70;68.50;;;;;;5015680;28;19909;-68
2024/02/09 06:11:34;;;;;;;;;;;15.70;72.80;;;;;;5015435;28;20257;-79
2024/02/09 06:14:02;;;;;;;;;;;15.70;72.70;;;;;;5015314;28;20384;-78
2024/02/09 06:16:28;;;;;;;;;;;15.70;73.00;;;;;;5014348;28;19913;-78
2024/02/09 06:18:54;;;;;;;;;;;15.70;72.40;;;;;;5015403;28;19964;-79
2024/02/09 06:21:20;;;;;;;;;;;15.70;72.60;;;;;;5015159;28;19914;-72
2024/02/09 06:23:46;;;;;;;;;;;15.70;72.80;;;;;;5021412;28;19933;-80
2024/02/09 06:26:14;;;;;;;;;;;15.70;72.20;;;;;;5017139;28;19960;-69
2024/02/09 06:28:40;;;;;;;;;;;15.70;72.60;;;;;;5015168;28;19910;-69
2024/02/09 06:31:06;;;;;;;;;;;15.70;72.70;;;;;;5015384;28;20390;-72
2024/02/09 06:33:33;;;;;;;;;;;15.70;72.60;;;;;;5015546;28;19914;-69
2024/02/09 06:35:58;;;;;;;;;;;15.70;72.60;;;;;;5015006;28;20415;-69
2024/02/09 06:38:24;;;;;;;;;;;15.80;72.80;;;;;;5015040;28;19910;-69
2024/02/09 06:40:53;;;;;;;;;;;15.70;72.40;;;;;;5015229;28;19910;-69
2024/02/09 06:43:21;;;;;;;;;;;15.80;72.30;;;;;;5014856;28;19909;-68
2024/02/09 06:45:47;;;;;;;;;;;15.80;72.40;;;;;;5015142;28;20384;-70
2024/02/09 06:48:13;;;;;;;;;;;15.80;72.40;;;;;;5014794;28;20380;-69
2024/02/09 06:50:39;;;;;;;;;;;15.80;72.30;;;;;;5014782;28;19917;-68
2024/02/09 06:53:05;;;;;;;;;;;15.70;72.50;;;;;;5015025;28;19909;-69
2024/02/09 06:55:32;;;;;;;;;;;15.70;71.60;;;;;;5015233;28;20001;-70
2024/02/09 06:57:58;;;;;;;;;;;16.40;72.70;;;;;;5014987;28;19917;-70
2024/02/09 07:00:25;;;;;;;;;;;15.70;72.70;;;;;;5014894;28;20300;-68
2024/02/09 07:02:51;;;;;;;;;;;15.70;72.10;;;;;;5014821;28;19941;-70
2024/02/09 07:05:19;;;;;;;;;;;15.70;72.60;;;;;;5014315;28;20412;-68
2024/02/09 07:07:49;;;;;;;;;;;15.70;72.50;;;;;;5014765;28;19913;-69
2024/02/09 07:10:16;;;;;;;;;;;15.80;72.60;;;;;;5014557;28;19972;-69
2024/02/09 07:12:43;;;;;;;;;;;15.70;72.60;;;;;;5014581;28;19996;-69
2024/02/09 07:15:09;;;;;;;;;;;15.70;72.70;;;;;;5014303;28;20326;-69
2024/02/09 07:17:35;;;;;;;;;;;15.80;71.30;;;;;;5014558;28;19909;-69
2024/02/09 07:20:03;;;;;;;;;;;15.70;72.60;;;;;;5014499;28;19916;-69
2024/02/09 07:22:35;;;;;;;;;;;15.80;72.80;;;;;;5014654;28;19913;-68
2024/02/09 07:25:01;;;;;;;;;;;15.70;72.90;;;;;;5013990;28;19925;-69
2024/02/09 07:27:28;;;;;;;;;;;15.70;72.70;;;;;;5014793;28;19916;-68
2024/02/09 07:29:54;;;;;;;;;;;15.70;72.20;;;;;;5014549;28;19909;-69
2024/02/09 07:32:20;;;;;;;;;;;15.80;72.80;;;;;;5013889;28;19914;-69
2024/02/09 07:34:46;;;;;;;;;;;15.80;72.70;;;;;;5014030;28;19916;-69
2024/02/09 07:37:13;;;;;;;;;;;15.80;72.80;;;;;;5013800;28;20368;-71
2024/02/09 07:39:39;;;;;;;;;;;15.80;72.50;;;;;;5016308;28;20467;-70
2024/02/09 07:42:04;;;;;;;;;;;15.80;72.60;;;;;;5015889;28;19953;-71
2024/02/09 07:44:30;;;;;;;;;;;15.80;72.60;;;;;;5013642;28;20342;-71
2024/02/09 07:46:56;;;;;;;;;;;15.80;72.80;;;;;;5013697;28;19967;-73
2024/02/09 07:49:26;;;;;;;;;;;15.80;73.20;;;;;;5013615;28;19914;-70
2024/02/09 07:51:52;;;;;;;;;;;15.80;72.60;;;;;;5013993;28;19909;-70
2024/02/09 07:54:18;;;;;;;;;;;15.80;73.10;;;;;;5013549;28;19997;-71
2024/02/09 07:56:43;;;;;;;;;;;15.80;73.20;;;;;;5013452;28;20063;-68
2024/02/09 07:59:09;;;;;;;;;;;15.90;72.30;;;;;;5013431;28;19909;-76
2024/02/09 08:01:35;;;;;;;;;;;15.90;73.00;;;;;;5013004;28;19910;-68
2024/02/09 08:04:01;;;;;;;;;;;15.90;73.30;;;;;;5013251;28;19921;-68
2024/02/09 08:06:27;;;;;;;;;;;15.90;73.20;;;;;;5012977;28;20344;-68
2024/02/09 08:08:54;;;;;;;;;;;15.80;73.10;;;;;;5013252;28;19909;-68
2024/02/09 08:11:20;;;;;;;;;;;15.80;73.30;;;;;;5012951;28;19909;-68
2024/02/09 08:13:50;;;;;;;;;;;15.80;73.50;;;;;;5013184;28;19910;-69
2024/02/09 08:16:16;;;;;;;;;;;15.80;73.10;;;;;;5013006;28;19910;-69
2024/02/09 08:18:42;;;;;;;;;;;16.00;73.30;;;;;;5012965;28;19921;-69
2024/02/09 08:21:07;;;;;;;;;;;16.00;73.40;;;;;;5013004;28;20395;-68
2024/02/09 08:23:33;;;;;;;;;;;15.90;73.20;;;;;;5012925;28;19915;-69
2024/02/09 08:25:58;;;;;;;;;;;16.00;73.00;;;;;;5013076;28;19980;-68
2024/02/09 08:28:25;;;;;;;;;;;16.00;73.40;;;;;;5012796;28;20403;-69
2024/02/09 08:30:50;;;;;;;;;;;16.00;73.00;;;;;;5013138;28;19909;-68
2024/02/09 08:33:16;;;;;;;;;;;15.80;73.00;;;;;;5012796;28;19972;-69
2024/02/09 08:35:41;;;;;;;;;;;16.00;73.10;;;;;;5012693;28;19917;-68
2024/02/09 08:38:07;;;;;;;;;;;16.00;73.00;;;;;;5012695;28;19953;-78
2024/02/09 08:40:33;;;;;;;;;;;16.00;73.70;;;;;;5012750;28;19917;-77
2024/02/09 08:42:58;;;;;;;;;;;16.00;73.00;;;;;;5012733;28;19910;-78
2024/02/09 08:45:24;;;;;;;;;;;16.00;72.90;;;;;;5012606;28;20013;-76
2024/02/09 08:47:50;;;;;;;;;;;16.10;73.30;;;;;;5012573;28;19999;-77
2024/02/09 08:50:15;;;;;;;;;;;16.10;72.90;;;;;;5012768;28;19937;-82
2024/02/09 08:52:42;;;;;;;;;;;16.10;73.20;;;;;;5012485;28;20420;-76
2024/02/09 08:55:09;;;;;;;;;;;16.10;73.00;;;;;;5012793;28;20287;-72
2024/02/09 08:57:35;;;;;;;;;;;16.20;72.60;;;;;;5012557;28;19910;-73
2024/02/09 09:00:00;;;;;;;;;;;16.10;73.00;;;;;;5012507;28;19955;-80
2024/02/09 09:02:26;;;;;;;;;;;16.20;71.90;;;;;;5012753;28;19956;-73
2024/02/09 09:04:52;;;;;;;;;;;16.10;73.00;;;;;;5012424;28;20007;-81
2024/02/09 09:07:18;;;;;;;;;;;16.10;73.10;;;;;;5012740;28;19921;-83
2024/02/09 09:09:43;;;;;;;;;;;16.10;73.00;;;;;;5012717;28;19910;-82
2024/02/09 09:12:09;;;;;;;;;;;16.20;73.30;;;;;;5012636;28;19944;-83
2024/02/09 09:14:36;;;;;;;;;;;16.20;73.00;;;;;;5012732;28;19956;-83
2024/02/09 09:17:02;;;;;;;;;;;16.10;73.20;;;;;;5013040;28;19953;-83
2024/02/09 09:19:27;;;;;;;;;;;16.10;73.30;;;;;;5012621;28;20407;-83
2024/02/09 09:21:53;;;;;;;;;;;16.20;73.00;;;;;;5012401;28;19909;-83
2024/02/09 09:24:19;;;;;;;;;;;;;;;;;;5018110;28;20006;-81
2024/02/09 09:26:45;;;;;;;;;;;16.20;68.60;;;;;;5012183;28;19917;-76
2024/02/09 09:29:12;;;;;;;;;;;16.10;73.20;;;;;;5012267;28;20351;-80
2024/02/09 09:31:38;;;;;;;;;;;16.20;73.20;;;;;;5012445;28;20300;-76
2024/02/09 09:34:03;;;;;;;;;;;16.30;73.10;;;;;;5012264;28;19992;-76
2024/02/09 09:36:33;;;;;;;;;;;16.20;73.30;;;;;;5012406;28;20388;-76
2024/02/09 09:39:05;;;;;;;;;;;16.20;69.70;;;;;;5012524;28;20008;-75
2024/02/09 09:41:34;;;;;;;;;;;16.30;73.30;;;;;;5012506;28;19909;-74
2024/02/09 09:43:59;;;;;;;;;;;16.20;73.30;;;;;;5012145;28;19909;-76
2024/02/09 09:46:27;;;;;;;;;;;16.30;73.30;;;;;;5012240;28;19917;-75
2024/02/09 09:48:54;;;;;;;;;;;16.70;73.60;;;;;;5012281;28;19956;-75
2024/02/09 09:51:22;;;;;;;;;;;16.40;73.10;;;;;;5014815;28;19909;-75
2024/02/09 09:53:50;;;;;;;;;;;16.30;73.40;;;;;;5015757;28;19909;-75
2024/02/09 09:56:16;;;;;;;;;;;16.30;73.20;;;;;;5015799;28;20024;-75
2024/02/09 09:58:42;;;;;;;;;;;16.40;73.80;;;;;;5015741;28;20027;-75
2024/02/09 10:01:09;;;;;;;;;;;16.50;72.80;;;;;;5015518;28;19975;-70
2024/02/09 10:03:36;;;;;;;;;;;16.60;72.10;;;;;;5015563;28;19909;-72
2024/02/09 10:06:02;;;;;;;;;;;16.50;72.70;;;;;;5015544;28;19922;-77
2024/02/09 10:08:28;;;;;;;;;;;16.60;72.30;;;;;;5015551;28;20368;-76
2024/02/09 10:10:55;;;;;;;;;;;16.50;72.20;;;;;;5015476;28;19910;-75
2024/02/09 10:13:24;;;;;;;;;;;16.70;72.50;;;;;;5015494;28;20486;-75
2024/02/09 10:15:54;;;;;;;;;;;16.70;68.00;;;;;;5015375;28;19914;-70
2024/02/09 10:18:20;;;;;;;;;;;16.70;68.00;;;;;;5015282;28;19910;-70
2024/02/09 10:20:49;;;;;;;;;;;16.80;72.40;;;;;;5015435;28;20434;-70
2024/02/09 10:23:19;;;;;;;;;;;16.80;69.60;;;;;;5015271;28;20003;-70
2024/02/09 10:25:44;;;;;;;;;;;16.80;68.00;;;;;;5015265;28;19924;-69
2024/02/09 10:28:13;;;;;;;;;;;16.80;72.60;;;;;;5015113;28;19910;-70
2024/02/09 10:30:39;;;;;;;;;;;16.80;72.50;;;;;;5015720;28;20351;-70
2024/02/09 10:33:10;;;;;;;;;;;16.90;73.00;;;;;;5015138;28;19910;-69
2024/02/09 10:35:38;;;;;;;;;;;16.80;72.80;;;;;;5015420;28;19909;-69
2024/02/09 10:38:04;;;;;;;;;;;16.80;73.40;;;;;;5014959;28;19909;-70
2024/02/09 10:40:29;;;;;;;;;;;16.80;73.00;;;;;;5015005;28;19936;-69
2024/02/09 10:42:56;;;;;;;;;;;16.80;73.60;;;;;;5015078;28;19955;-69
2024/02/09 10:45:21;;;;;;;;;;;16.80;74.20;;;;;;5014784;28;20427;-69
2024/02/09 10:47:47;;;;;;;;;;;16.80;74.00;;;;;;5014869;28;19909;-70
2024/02/09 10:50:16;;;;;;;;;;;16.80;74.30;;;;;;5014763;28;19910;-70
2024/02/09 10:52:44;;;;;;;;;;;16.80;74.20;;;;;;5014806;28;19957;-70
2024/02/09 10:55:10;;;;;;;;;;;16.80;74.10;;;;;;5014821;28;19909;-69
2024/02/09 10:57:36;;;;;;;;;;;16.80;74.40;;;;;;5014656;28;19916;-69
2024/02/09 11:00:02;;;;;;;;;;;16.90;74.40;;;;;;5014691;28;19909;-70
2024/02/09 11:02:29;;;;;;;;;;;16.90;74.00;;;;;;5014105;28;20069;-69
2024/02/09 11:04:55;;;;;;;;;;;16.80;74.30;;;;;;5013948;28;19921;-69
2024/02/09 11:07:22;;;;;;;;;;;17.10;74.80;;;;;;5014445;28;19918;-71
2024/02/09 11:09:47;;;;;;;;;;;16.90;74.50;;;;;;5014165;28;19982;-70
2024/02/09 11:12:13;;;;;;;;;;;17.00;74.50;;;;;;5014199;28;19910;-70
2024/02/09 11:14:44;;;;;;;;;;;16.80;73.80;;;;;;5014177;28;20016;-70
2024/02/09 11:17:10;;;;;;;;;;;17.00;74.50;;;;;;5021274;28;20296;-69
2024/02/09 11:19:42;;;;;;;;;;;17.00;74.10;;;;;;5012803;28;19909;-71
2024/02/09 11:22:08;;;;;;;;;;;16.90;69.80;;;;;;5013938;28;19909;-68
2024/02/09 11:24:34;;;;;;;;;;;17.00;74.40;;;;;;5014133;28;20275;-70
2024/02/09 11:27:01;;;;;;;;;;;17.10;74.00;;;;;;5013778;28;19925;-69
2024/02/09 11:29:26;;;;;;;;;;;17.00;74.20;;;;;;5013814;28;19993;-69
2024/02/09 11:31:53;;;;;;;;;;;17.00;74.10;;;;;;5013830;28;19999;-69
2024/02/09 11:34:22;;;;;;;;;;;17.00;74.10;;;;;;5013770;28;19921;-68
2024/02/09 11:36:47;;;;;;;;;;;17.30;73.90;;;;;;5013728;28;19962;-68
2024/02/09 11:39:13;;;;;;;;;;;17.10;73.50;;;;;;5013690;28;20423;-67
2024/02/09 11:41:39;;;;;;;;;;;17.00;74.00;;;;;;5013858;28;19914;-68
2024/02/09 11:44:06;;;;;;;;;;;17.00;73.90;;;;;;5014146;28;19909;-69
2024/02/09 11:46:35;;;;;;;;;;;17.10;73.90;;;;;;5012416;28;20409;-70
2024/02/09 11:49:02;;;;;;;;;;;17.10;74.00;;;;;;5013811;28;19914;-70
2024/02/09 11:51:27;;;;;;;;;;;17.10;73.80;;;;;;5013357;28;19909;-68
2024/02/09 11:53:53;;;;;;;;;;;17.00;73.80;;;;;;5013326;28;19910;-69
2024/02/09 11:56:19;;;;;;;;;;;17.00;73.50;;;;;;5013536;28;19913;-68
2024/02/09 11:58:49;;;;;;;;;;;17.10;73.70;;;;;;5012412;28;19960;-68
2024/02/09 12:01:24;;;;;;;;;;;17.10;73.50;;;;;;5013386;28;19917;-69
2024/02/09 12:03:50;;;;;;;;;;;17.10;73.40;;;;;;5013668;28;19910;-76
2024/02/09 12:06:16;;;;;;;;;;;17.10;73.80;;;;;;5013652;28;19918;-75
2024/02/09 12:08:42;;;;;;;;;;;17.10;73.80;;;;;;5013209;28;19917;-75
2024/02/09 12:11:08;;;;;;;;;;;17.00;74.20;;;;;;5013251;28;19913;-77
2024/02/09 12:13:34;;;;;;;;;;;17.10;74.30;;;;;;5012692;28;19910;-75
2024/02/09 12:15:59;;;;;;;;;;;17.10;73.50;;;;;;5013588;28;19916;-75
2024/02/09 12:18:25;;;;;;;;;;;17.10;73.60;;;;;;5013171;28;20292;-75
2024/02/09 12:20:53;;;;;;;;;;;17.10;73.60;;;;;;5013086;28;19916;-75
2024/02/09 12:23:19;;;;;;;;;;;17.10;73.50;;;;;;5013350;28;19949;-75
2024/02/09 12:25:44;;;;;;;;;;;17.10;73.30;;;;;;5012888;28;19953;-76
2024/02/09 12:28:18;;;;;;;;;;;17.20;73.50;;;;;;5013363;28;19910;-74
2024/02/09 12:30:45;;;;;;;;;;;17.10;73.50;;;;;;5012839;28;20372;-76
2024/02/09 12:33:11;;;;;;;;;;;17.20;73.50;;;;;;5013292;28;19910;-76
2024/02/09 12:35:37;;;;;;;;;;;17.20;72.70;;;;;;5012918;28;19917;-76
2024/02/09 12:38:03;;;;;;;;;;;17.20;73.30;;;;;;5012831;28;19910;-76
2024/02/09 12:40:30;;;;;;;;;;;17.20;73.00;;;;;;5012844;28;19909;-76
2024/02/09 12:42:55;;;;;;;;;;;17.20;71.90;;;;;;5012759;28;20376;-76
2024/02/09 12:45:26;;;;;;;;;;;17.10;72.90;;;;;;5012751;28;20454;-77
2024/02/09 12:47:52;;;;;;;;;;;17.30;73.10;;;;;;5012552;28;19909;-77
2024/02/09 12:50:20;;;;;;;;;;;17.20;72.80;;;;;;5012595;28;20577;-76
2024/02/09 12:52:52;;;;;;;;;;;17.20;72.80;;;;;;5012614;28;19910;-77
2024/02/09 12:55:19;;;;;;;;;;;17.20;68.50;;;;;;5012654;28;19910;-77
2024/02/09 12:57:48;;;;;;;;;;;17.30;73.00;;;;;;5012562;28;20399;-77
2024/02/09 13:00:14;;;;;;;;;;;17.40;72.30;;;;;;5012597;28;19916;-77
2024/02/09 13:02:40;;;;;;;;;;;17.60;70.80;;;;;;5013192;28;20333;-76
2024/02/09 13:05:06;;;;;;;;;;;17.70;71.30;;;;;;5012427;28;19921;-77
2024/02/09 13:07:34;;;;;;;;;;;17.70;70.10;;;;;;5012462;28;19909;-77
2024/02/09 13:10:01;;;;;;;;;;;17.70;70.80;;;;;;5012724;28;19910;-77
2024/02/09 13:12:27;;;;;;;;;;;17.80;71.10;;;;;;5012600;28;20008;-76
2024/02/09 13:14:53;;;;;;;;;;;17.80;70.60;;;;;;5012495;28;20002;-69
2024/02/09 13:17:19;;;;;;;;;;;17.70;70.90;;;;;;5012621;28;19952;-69
2024/02/09 13:19:46;;;;;;;;;;;17.70;70.10;;;;;;5012642;28;19954;-69
2024/02/09 13:22:11;;;;;;;;;;;17.70;70.90;;;;;;5012687;28;19913;-69
2024/02/09 13:24:39;;;;;;;;;;;17.70;71.00;;;;;;5013921;28;20434;-69
2024/02/09 13:27:13;;;;;;;;;;;17.70;71.40;;;;;;5016454;28;19972;-69
2024/02/09 13:29:39;;;;;;;;;;;17.70;67.10;;;;;;5016328;28;20291;-69
2024/02/09 13:32:04;;;;;;;;;;;18.00;71.60;;;;;;5016234;28;19909;-69
2024/02/09 13:34:30;;;;;;;;;;;17.80;71.20;;;;;;5016229;28;19916;-69
2024/02/09 13:36:56;;;;;;;;;;;17.90;70.90;;;;;;5016057;28;19932;-69
2024/02/09 13:39:21;;;;;;;;;;;17.90;71.10;;;;;;5016061;28;19945;-69
2024/02/09 13:41:47;;;;;;;;;;;17.90;70.80;;;;;;5015926;28;20406;-69
2024/02/09 13:44:15;;;;;;;;;;;17.90;70.90;;;;;;5015918;28;19924;-69
2024/02/09 13:46:41;;;;;;;;;;;17.80;71.10;;;;;;5015822;28;20398;-69
2024/02/09 13:49:07;;;;;;;;;;;17.90;71.30;;;;;;5016386;28;19917;-69
2024/02/09 13:51:33;;;;;;;;;;;17.70;71.30;;;;;;5016134;28;19910;-69
2024/02/09 13:54:01;;;;;;;;;;;17.80;71.40;;;;;;5015665;28;19963;-69
2024/02/09 13:56:27;;;;;;;;;;;17.70;71.40;;;;;;5015726;28;19909;-69
2024/02/09 13:58:53;;;;;;;;;;;17.80;71.30;;;;;;5015702;28;19928;-70
2024/02/09 14:01:18;;;;;;;;;;;17.70;71.70;;;;;;5015693;28;20056;-77
2024/02/09 14:03:44;;;;;;;;;;;17.70;71.00;;;;;;5015295;28;20292;-76
2024/02/09 14:06:18;;;;;;;;;;;17.70;71.60;;;;;;5015808;28;20372;-78
2024/02/09 14:08:47;;;;;;;;;;;17.80;67.60;;;;;;5015614;28;19910;-79
2024/02/09 14:11:13;;;;;;;;;;;17.70;70.00;;;;;;5015674;28;19914;-77
2024/02/09 14:13:39;;;;;;;;;;;17.70;72.20;;;;;;5015590;28;19914;-77
2024/02/09 14:16:06;;;;;;;;;;;17.60;72.10;;;;;;5015917;28;19910;-78
2024/02/09 14:18:34;;;;;;;;;;;17.60;71.00;;;;;;5015614;28;19909;-78
2024/02/09 14:21:00;;;;;;;;;;;17.60;67.70;;;;;;5015234;28;20333;-78
2024/02/09 14:23:27;;;;;;;;;;;17.60;72.10;;;;;;5015236;28;19909;-77
2024/02/09 14:25:56;;;;;;;;;;;17.60;72.00;;;;;;5015199;28;19924;-77
2024/02/09 14:28:23;;;;;;;;;;;17.60;67.90;;;;;;5015012;28;20306;-77
2024/02/09 14:30:52;;;;;;;;;;;17.70;72.60;;;;;;5014939;28;19956;-77
2024/02/09 14:33:19;;;;;;;;;;;17.60;67.90;;;;;;5014832;28;19909;-77
2024/02/09 14:35:47;;;;;;;;;;;17.60;72.40;;;;;;5014051;28;19916;-77
2024/02/09 14:38:13;;;;;;;;;;;17.50;72.30;;;;;;5014963;28;19968;-77
2024/02/09 14:40:39;;;;;;;;;;;17.60;72.40;;;;;;5015039;28;20056;-77
2024/02/09 14:43:04;;;;;;;;;;;17.70;72.30;;;;;;5014608;28;19909;-78
2024/02/09 14:45:34;;;;;;;;;;;17.60;72.40;;;;;;5014584;28;20291;-77
2024/02/09 14:48:00;;;;;;;;;;;17.50;72.40;;;;;;5014800;28;19909;-77
2024/02/09 14:50:29;;;;;;;;;;;17.60;72.50;;;;;;5014540;28;20292;-78
2024/02/09 14:52:56;;;;;;;;;;;17.30;68.10;;;;;;5014828;28;19945;-78
2024/02/09 14:55:23;;;;;;;;;;;17.50;72.40;;;;;;5014419;28;19910;-77
2024/02/09 14:57:52;;;;;;;;;;;17.50;72.50;;;;;;5014706;28;20292;-76
2024/02/09 15:00:18;;;;;;;;;;;17.60;68.10;;;;;;5014522;28;20237;-77
2024/02/09 15:02:44;;;;;;;;;;;17.60;71.60;;;;;;5014473;28;20346;-77
2024/02/09 15:05:14;;;;;;;;;;;17.60;72.00;;;;;;5014060;28;19965;-77
2024/02/09 15:07:41;;;;;;;;;;;17.50;68.00;;;;;;5014236;28;19910;-77
2024/02/09 15:10:07;;;;;;;;;;;17.50;72.00;;;;;;5014289;28;19913;-77
2024/02/09 15:12:34;;;;;;;;;;;17.50;72.10;;;;;;5014289;28;20012;-77
2024/02/09 15:15:03;;;;;;;;;;;17.50;72.00;;;;;;5014311;28;19909;-76
2024/02/09 15:17:29;;;;;;;;;;;17.50;67.90;;;;;;5014350;28;20008;-72
2024/02/09 15:19:55;;;;;;;;;;;17.50;72.00;;;;;;5014244;28;20443;-76
2024/02/09 15:22:20;;;;;;;;;;;17.50;72.20;;;;;;5014758;28;20271;-76
2024/02/09 15:24:46;;;;;;;;;;;17.50;72.00;;;;;;5012674;28;19909;-76
2024/02/09 15:27:13;;;;;;;;;;;17.50;72.30;;;;;;5013902;28;19909;-75
2024/02/09 15:29:39;;;;;;;;;;;17.60;72.00;;;;;;5013856;28;20367;-77
2024/02/09 15:32:05;;;;;;;;;;;17.50;72.00;;;;;;5013753;28;19910;-76
2024/02/09 15:34:31;;;;;;;;;;;17.50;71.10;;;;;;5013734;28;19917;-68
2024/02/09 15:37:00;;;;;;;;;;;17.50;71.90;;;;;;5013683;28;19909;-69
2024/02/09 15:39:25;;;;;;;;;;;17.60;71.70;;;;;;5013892;28;19909;-69
2024/02/09 15:41:56;;;;;;;;;;;17.50;71.90;;;;;;5013555;28;20343;-69
2024/02/09 15:44:23;;;;;;;;;;;17.50;71.70;;;;;;5013809;28;19992;-69
2024/02/09 15:46:49;;;;;;;;;;;17.50;72.10;;;;;;5013642;28;19921;-69
2024/02/09 15:49:15;;;;;;;;;;;17.50;71.70;;;;;;5012584;28;19916;-69
2024/02/09 15:51:41;;;;;;;;;;;17.50;71.70;;;;;;5013872;28;19910;-69
2024/02/09 15:54:07;;;;;;;;;;;17.50;71.80;;;;;;5013594;28;20056;-68
2024/02/09 15:56:35;;;;;;;;;;;17.50;71.80;;;;;;5013274;28;19910;-69
2024/02/09 15:59:02;;;;;;;;;;;17.50;71.60;;;;;;5013612;28;20210;-69
2024/02/09 16:01:32;;;;;;;;;;;17.50;71.50;;;;;;5013197;28;19931;-69
2024/02/09 16:03:59;;;;;;;;;;;17.50;67.60;;;;;;5013286;28;19925;-76